sensor_id;sensor_type;location;lat;lon;timestamp;temperature;humidity
21298;DHT22;10808;48.010;11.326;2022-09-09T00:00:26;16.60;99.90
21298;DHT22;10808;48.010;11.326;2022-09-09T00:03:18;16.60;99.90
21298;DHT22;10808;48.010;11.326;2022-09-09T00:06:20;16.60;99.90
21298;DHT22;10808;48.010;11.326;2022-09-09T00:09:10;16.60;99.90
21298;DHT22;10808;48.010;11.326;2022-09-09T00:14:59;16.60;99.90
21298;DHT22;10808;48.010;11.326;2022-09-09T00:17:47;16.60;99.90
21298;DHT22;10808;48.010;11.326;2022-09-09T00:20:21;16.60;99.90
21298;DHT22;10808;48.010;11.326;2022-09-09T00:22:57;16.60;99.90
21298;DHT22;10808;48.010;11.326;2022-09-09T00:25:34;16.70;99.90
21298;DHT22;10808;48.010;11.326;2022-09-09T00:28:13;16.60;99.90
21298;DHT22;10808;48.010;11.326;2022-09-09T00:30:43;16.70;99.90
21298;DHT22;10808;48.010;11.326;2022-09-09T00:33:13;16.70;99.90
21298;DHT22;10808;48.010;11.326;2022-09-09T00:35:49;16.70;99.90
21298;DHT22;10808;48.010;11.326;2022-09-09T00:38:34;16.70;99.90
21298;DHT22;10808;48.010;11.326;2022-09-09T00:41:21;16.60;99.90
21298;DHT22;10808;48.010;11.326;2022-09-09T00:44:17;16.70;99.90
21298;DHT22;10808;48.010;11.326;2022-09-09T00:55:19;16.70;99.90
21298;DHT22;10808;48.010;11.326;2022-09-09T00:57:50;16.70;99.90
21298;DHT22;10808;48.010;11.326;2022-09-09T01:00:22;16.70;99.90
21298;DHT22;10808;48.010;11.326;2022-09-09T01:02:53;16.70;99.90
21298;DHT22;10808;48.010;11.326;2022-09-09T01:08:11;16.60;99.90
21298;DHT22;10808;48.010;11.326;2022-09-09T01:10:53;16.60;99.90
21298;DHT22;10808;48.010;11.326;2022-09-09T01:13:28;16.60;99.90
21298;DHT22;10808;48.010;11.326;2022-09-09T01:16:00;16.60;99.90
21298;DHT22;10808;48.010;11.326;2022-09-09T01:18:44;16.70;99.90
21298;DHT22;10808;48.010;11.326;2022-09-09T01:24:09;16.70;99.90
21298;DHT22;10808;48.010;11.326;2022-09-09T01:26:44;16.70;99.90
21298;DHT22;10808;48.010;11.326;2022-09-09T01:29:16;16.70;99.90
21298;DHT22;10808;48.010;11.326;2022-09-09T01:32:35;16.70;99.90
21298;DHT22;10808;48.010;11.326;2022-09-09T01:34:45;16.70;99.90
21298;DHT22;10808;48.010;11.326;2022-09-09T01:37:12;16.70;99.90
21298;DHT22;10808;48.010;11.326;2022-09-09T01:39:40;16.70;99.90
21298;DHT22;10808;48.010;11.326;2022-09-09T01:42:09;16.70;99.90
21298;DHT22;10808;48.010;11.326;2022-09-09T01:44:38;16.70;99.90
21298;DHT22;10808;48.010;11.326;2022-09-09T01:47:04;16.70;99.90
21298;DHT22;10808;48.010;11.326;2022-09-09T01:49:31;16.70;99.90
21298;DHT22;10808;48.010;11.326;2022-09-09T01:51:59;16.70;99.90
21298;DHT22;10808;48.010;11.326;2022-09-09T01:54:28;16.70;99.90
21298;DHT22;10808;48.010;11.326;2022-09-09T01:57:15;16.70;99.90
21298;DHT22;10808;48.010;11.326;2022-09-09T02:07:49;16.60;99.90
21298;DHT22;10808;48.010;11.326;2022-09-09T02:10:28;16.60;99.90
21298;DHT22;10808;48.010;11.326;2022-09-09T02:13:09;16.60;99.90
21298;DHT22;10808;48.010;11.326;2022-09-09T02:15:44;16.60;99.90
21298;DHT22;10808;48.010;11.326;2022-09-09T02:18:12;16.60;99.90
21298;DHT22;10808;48.010;11.326;2022-09-09T02:20:41;16.60;99.90
21298;DHT22;10808;48.010;11.326;2022-09-09T02:23:08;16.60;99.90
21298;DHT22;10808;48.010;11.326;2022-09-09T02:25:36;16.60;99.90
21298;DHT22;10808;48.010;11.326;2022-09-09T02:28:06;16.60;99.90
21298;DHT22;10808;48.010;11.326;2022-09-09T02:30:34;16.60;99.90
21298;DHT22;10808;48.010;11.326;2022-09-09T02:33:03;16.60;99.90
21298;DHT22;10808;48.010;11.326;2022-09-09T02:35:31;16.60;99.90
21298;DHT22;10808;48.010;11.326;2022-09-09T02:38:04;16.60;99.90
21298;DHT22;10808;48.010;11.326;2022-09-09T02:40:31;16.60;99.90
21298;DHT22;10808;48.010;11.326;2022-09-09T02:42:58;16.60;99.90
21298;DHT22;10808;48.010;11.326;2022-09-09T02:45:31;16.60;99.90
21298;DHT22;10808;48.010;11.326;2022-09-09T02:48:25;16.60;99.90
21298;DHT22;10808;48.010;11.326;2022-09-09T02:50:59;16.50;99.90
21298;DHT22;10808;48.010;11.326;2022-09-09T02:53:50;16.50;99.90
21298;DHT22;10808;48.010;11.326;2022-09-09T02:56:25;16.50;99.90
21298;DHT22;10808;48.010;11.326;2022-09-09T02:58:54;16.50;99.90
21298;DHT22;10808;48.010;11.326;2022-09-09T03:01:21;16.50;99.90
21298;DHT22;10808;48.010;11.326;2022-09-09T03:03:47;16.50;99.90
21298;DHT22;10808;48.010;11.326;2022-09-09T03:06:13;16.50;99.90
21298;DHT22;10808;48.010;11.326;2022-09-09T03:08:40;16.50;99.90
21298;DHT22;10808;48.010;11.326;2022-09-09T03:11:07;16.40;99.90
21298;DHT22;10808;48.010;11.326;2022-09-09T03:13:34;16.40;99.90
21298;DHT22;10808;48.010;11.326;2022-09-09T03:16:01;16.40;99.90
21298;DHT22;10808;48.010;11.326;2022-09-09T03:18:27;16.40;99.90
21298;DHT22;10808;48.010;11.326;2022-09-09T03:20:53;16.40;99.90
21298;DHT22;10808;48.010;11.326;2022-09-09T03:23:20;16.40;99.90
21298;DHT22;10808;48.010;11.326;2022-09-09T03:25:51;16.30;99.90
21298;DHT22;10808;48.010;11.326;2022-09-09T03:28:18;16.30;99.90
21298;DHT22;10808;48.010;11.326;2022-09-09T03:30:44;16.20;99.90
21298;DHT22;10808;48.010;11.326;2022-09-09T03:33:10;16.20;99.90
21298;DHT22;10808;48.010;11.326;2022-09-09T03:35:36;16.20;99.90
21298;DHT22;10808;48.010;11.326;2022-09-09T03:38:02;16.20;99.90
21298;DHT22;10808;48.010;11.326;2022-09-09T03:40:28;16.10;99.90
21298;DHT22;10808;48.010;11.326;2022-09-09T03:42:54;16.00;99.90
21298;DHT22;10808;48.010;11.326;2022-09-09T03:45:21;16.00;99.90
21298;DHT22;10808;48.010;11.326;2022-09-09T03:47:47;16.00;99.90
21298;DHT22;10808;48.010;11.326;2022-09-09T03:50:13;15.90;99.90
21298;DHT22;10808;48.010;11.326;2022-09-09T03:52:40;15.90;99.90
21298;DHT22;10808;48.010;11.326;2022-09-09T03:55:07;15.90;99.90
21298;DHT22;10808;48.010;11.326;2022-09-09T03:57:34;15.90;99.90
21298;DHT22;10808;48.010;11.326;2022-09-09T04:00:03;15.80;99.90
21298;DHT22;10808;48.010;11.326;2022-09-09T04:02:30;15.80;99.90
21298;DHT22;10808;48.010;11.326;2022-09-09T04:04:56;15.80;99.90
21298;DHT22;10808;48.010;11.326;2022-09-09T04:07:22;15.80;99.90
21298;DHT22;10808;48.010;11.326;2022-09-09T04:09:48;15.70;99.90
21298;DHT22;10808;48.010;11.326;2022-09-09T04:12:14;15.80;99.90
21298;DHT22;10808;48.010;11.326;2022-09-09T04:14:42;15.70;99.90
21298;DHT22;10808;48.010;11.326;2022-09-09T04:17:08;15.70;99.90
21298;DHT22;10808;48.010;11.326;2022-09-09T04:19:34;15.70;99.90
21298;DHT22;10808;48.010;11.326;2022-09-09T04:22:00;15.70;99.90
21298;DHT22;10808;48.010;11.326;2022-09-09T04:24:26;15.70;99.90
21298;DHT22;10808;48.010;11.326;2022-09-09T04:26:54;15.70;99.90
21298;DHT22;10808;48.010;11.326;2022-09-09T04:29:21;15.70;99.90
21298;DHT22;10808;48.010;11.326;2022-09-09T04:31:47;15.70;99.90
21298;DHT22;10808;48.010;11.326;2022-09-09T04:34:13;15.70;99.90
21298;DHT22;10808;48.010;11.326;2022-09-09T04:36:39;15.70;99.90
21298;DHT22;10808;48.010;11.326;2022-09-09T04:39:06;15.70;99.90
21298;DHT22;10808;48.010;11.326;2022-09-09T04:41:32;15.60;99.90
21298;DHT22;10808;48.010;11.326;2022-09-09T04:43:58;15.70;99.90
21298;DHT22;10808;48.010;11.326;2022-09-09T04:46:25;15.70;99.90
21298;DHT22;10808;48.010;11.326;2022-09-09T04:48:51;15.70;99.90
21298;DHT22;10808;48.010;11.326;2022-09-09T04:51:18;15.70;99.90
21298;DHT22;10808;48.010;11.326;2022-09-09T04:53:44;15.70;99.90
21298;DHT22;10808;48.010;11.326;2022-09-09T04:56:15;15.70;99.90
21298;DHT22;10808;48.010;11.326;2022-09-09T04:58:41;15.70;99.90
21298;DHT22;10808;48.010;11.326;2022-09-09T05:01:14;15.60;99.90
21298;DHT22;10808;48.010;11.326;2022-09-09T05:03:40;15.60;99.90
21298;DHT22;10808;48.010;11.326;2022-09-09T05:06:11;15.60;99.90
21298;DHT22;10808;48.010;11.326;2022-09-09T05:08:39;15.60;99.90
21298;DHT22;10808;48.010;11.326;2022-09-09T05:11:21;15.60;99.90
21298;DHT22;10808;48.010;11.326;2022-09-09T05:13:52;15.60;99.90
21298;DHT22;10808;48.010;11.326;2022-09-09T05:16:19;15.60;99.90
21298;DHT22;10808;48.010;11.326;2022-09-09T05:18:45;15.60;99.90
21298;DHT22;10808;48.010;11.326;2022-09-09T05:21:13;15.60;99.90
21298;DHT22;10808;48.010;11.326;2022-09-09T05:23:39;15.60;99.90
21298;DHT22;10808;48.010;11.326;2022-09-09T05:26:07;15.60;99.90
21298;DHT22;10808;48.010;11.326;2022-09-09T05:28:35;15.60;99.90
21298;DHT22;10808;48.010;11.326;2022-09-09T05:31:06;15.50;99.90
21298;DHT22;10808;48.010;11.326;2022-09-09T05:33:37;15.60;99.90
21298;DHT22;10808;48.010;11.326;2022-09-09T05:36:08;15.60;99.90
21298;DHT22;10808;48.010;11.326;2022-09-09T05:38:36;15.60;99.90
21298;DHT22;10808;48.010;11.326;2022-09-09T05:41:03;15.60;99.90
21298;DHT22;10808;48.010;11.326;2022-09-09T05:43:30;15.70;99.90
21298;DHT22;10808;48.010;11.326;2022-09-09T05:46:07;15.70;99.90
21298;DHT22;10808;48.010;11.326;2022-09-09T05:48:36;15.70;99.90
21298;DHT22;10808;48.010;11.326;2022-09-09T05:51:04;15.80;99.90
21298;DHT22;10808;48.010;11.326;2022-09-09T05:53:30;15.80;99.90
21298;DHT22;10808;48.010;11.326;2022-09-09T05:56:08;15.80;99.90
21298;DHT22;10808;48.010;11.326;2022-09-09T05:58:38;15.90;99.90
21298;DHT22;10808;48.010;11.326;2022-09-09T06:01:09;15.90;99.90
21298;DHT22;10808;48.010;11.326;2022-09-09T06:03:37;15.90;99.90
21298;DHT22;10808;48.010;11.326;2022-09-09T06:06:06;16.00;99.90
21298;DHT22;10808;48.010;11.326;2022-09-09T06:08:33;16.00;99.90
21298;DHT22;10808;48.010;11.326;2022-09-09T06:13:36;16.10;99.90
21298;DHT22;10808;48.010;11.326;2022-09-09T06:16:08;16.10;99.90
21298;DHT22;10808;48.010;11.326;2022-09-09T06:18:35;16.10;99.90
21298;DHT22;10808;48.010;11.326;2022-09-09T06:21:04;16.10;99.90
21298;DHT22;10808;48.010;11.326;2022-09-09T06:23:31;16.20;99.90
21298;DHT22;10808;48.010;11.326;2022-09-09T06:26:02;16.20;99.90
21298;DHT22;10808;48.010;11.326;2022-09-09T06:28:28;16.30;99.90
21298;DHT22;10808;48.010;11.326;2022-09-09T06:30:59;16.30;99.90
21298;DHT22;10808;48.010;11.326;2022-09-09T06:33:25;16.30;99.90
21298;DHT22;10808;48.010;11.326;2022-09-09T06:35:52;16.40;99.90
21298;DHT22;10808;48.010;11.326;2022-09-09T06:38:19;16.50;99.90
21298;DHT22;10808;48.010;11.326;2022-09-09T06:40:55;16.50;99.90
21298;DHT22;10808;48.010;11.326;2022-09-09T06:43:23;16.50;99.90
21298;DHT22;10808;48.010;11.326;2022-09-09T06:45:57;16.60;99.90
21298;DHT22;10808;48.010;11.326;2022-09-09T06:48:24;16.60;99.90
21298;DHT22;10808;48.010;11.326;2022-09-09T06:51:06;16.60;99.90
21298;DHT22;10808;48.010;11.326;2022-09-09T06:53:34;16.60;99.90
21298;DHT22;10808;48.010;11.326;2022-09-09T06:56:02;16.60;99.90
21298;DHT22;10808;48.010;11.326;2022-09-09T06:58:28;16.60;99.90
21298;DHT22;10808;48.010;11.326;2022-09-09T07:01:05;16.70;99.90
21298;DHT22;10808;48.010;11.326;2022-09-09T07:03:32;16.70;99.90
21298;DHT22;10808;48.010;11.326;2022-09-09T07:05:58;16.70;99.90
21298;DHT22;10808;48.010;11.326;2022-09-09T07:08:25;16.70;99.90
21298;DHT22;10808;48.010;11.326;2022-09-09T07:10:52;16.70;99.90
21298;DHT22;10808;48.010;11.326;2022-09-09T07:13:28;16.80;99.90
21298;DHT22;10808;48.010;11.326;2022-09-09T07:15:54;16.80;99.90
21298;DHT22;10808;48.010;11.326;2022-09-09T07:18:20;16.90;99.90
21298;DHT22;10808;48.010;11.326;2022-09-09T07:20:54;17.00;99.90
21298;DHT22;10808;48.010;11.326;2022-09-09T07:23:20;17.00;99.90
21298;DHT22;10808;48.010;11.326;2022-09-09T07:25:47;17.10;99.90
21298;DHT22;10808;48.010;11.326;2022-09-09T07:28:14;17.10;99.90
21298;DHT22;10808;48.010;11.326;2022-09-09T07:30:40;17.20;99.90
21298;DHT22;10808;48.010;11.326;2022-09-09T07:33:07;17.30;99.90
21298;DHT22;10808;48.010;11.326;2022-09-09T07:35:33;17.30;99.90
21298;DHT22;10808;48.010;11.326;2022-09-09T07:38:00;17.30;99.90
21298;DHT22;10808;48.010;11.326;2022-09-09T07:40:27;17.40;99.90
21298;DHT22;10808;48.010;11.326;2022-09-09T07:42:53;17.40;99.90
21298;DHT22;10808;48.010;11.326;2022-09-09T07:45:19;17.50;99.90
21298;DHT22;10808;48.010;11.326;2022-09-09T07:47:46;17.60;99.90
21298;DHT22;10808;48.010;11.326;2022-09-09T07:50:13;17.60;99.90
21298;DHT22;10808;48.010;11.326;2022-09-09T07:52:40;17.70;99.90
21298;DHT22;10808;48.010;11.326;2022-09-09T07:55:06;17.70;99.90
21298;DHT22;10808;48.010;11.326;2022-09-09T07:57:33;17.80;99.90
21298;DHT22;10808;48.010;11.326;2022-09-09T07:59:59;17.80;99.90
21298;DHT22;10808;48.010;11.326;2022-09-09T08:02:25;17.80;99.90
21298;DHT22;10808;48.010;11.326;2022-09-09T08:04:55;17.80;99.90
21298;DHT22;10808;48.010;11.326;2022-09-09T08:07:22;17.80;99.90
21298;DHT22;10808;48.010;11.326;2022-09-09T08:09:49;17.80;99.90
21298;DHT22;10808;48.010;11.326;2022-09-09T08:12:15;17.90;99.90
21298;DHT22;10808;48.010;11.326;2022-09-09T08:14:42;17.90;99.90
21298;DHT22;10808;48.010;11.326;2022-09-09T08:17:08;17.90;99.90
21298;DHT22;10808;48.010;11.326;2022-09-09T08:19:34;17.90;99.90
21298;DHT22;10808;48.010;11.326;2022-09-09T08:22:02;18.00;99.90
21298;DHT22;10808;48.010;11.326;2022-09-09T08:24:29;18.00;99.90
21298;DHT22;10808;48.010;11.326;2022-09-09T08:26:55;18.00;99.90
21298;DHT22;10808;48.010;11.326;2022-09-09T08:29:22;18.00;99.90
21298;DHT22;10808;48.010;11.326;2022-09-09T08:31:51;18.10;99.90
21298;DHT22;10808;48.010;11.326;2022-09-09T08:34:18;18.10;99.90
21298;DHT22;10808;48.010;11.326;2022-09-09T08:36:47;18.10;99.90
21298;DHT22;10808;48.010;11.326;2022-09-09T08:39:16;18.20;99.90
21298;DHT22;10808;48.010;11.326;2022-09-09T08:54:59;18.40;99.90
21298;DHT22;10808;48.010;11.326;2022-09-09T08:57:29;18.50;99.90
21298;DHT22;10808;48.010;11.326;2022-09-09T08:59:58;18.50;99.90
21298;DHT22;10808;48.010;11.326;2022-09-09T09:05:32;18.70;99.90
21298;DHT22;10808;48.010;11.326;2022-09-09T09:08:03;18.60;99.90
21298;DHT22;10808;48.010;11.326;2022-09-09T09:10:49;18.70;99.90
21298;DHT22;10808;48.010;11.326;2022-09-09T09:13:19;18.70;99.90
21298;DHT22;10808;48.010;11.326;2022-09-09T09:15:54;18.80;99.90
21298;DHT22;10808;48.010;11.326;2022-09-09T09:18:22;18.80;99.90
21298;DHT22;10808;48.010;11.326;2022-09-09T09:21:08;18.90;99.90
21298;DHT22;10808;48.010;11.326;2022-09-09T09:23:45;18.90;99.90
21298;DHT22;10808;48.010;11.326;2022-09-09T09:26:14;18.90;99.90
21298;DHT22;10808;48.010;11.326;2022-09-09T09:28:41;18.90;99.90
21298;DHT22;10808;48.010;11.326;2022-09-09T09:31:10;18.90;99.90
21298;DHT22;10808;48.010;11.326;2022-09-09T09:33:53;19.00;99.90
21298;DHT22;10808;48.010;11.326;2022-09-09T09:36:24;18.90;99.90
21298;DHT22;10808;48.010;11.326;2022-09-09T09:38:57;18.90;99.90
21298;DHT22;10808;48.010;11.326;2022-09-09T09:41:40;18.80;99.90
21298;DHT22;10808;48.010;11.326;2022-09-09T09:44:29;18.80;99.90
21298;DHT22;10808;48.010;11.326;2022-09-09T09:47:13;18.80;99.90
21298;DHT22;10808;48.010;11.326;2022-09-09T09:49:50;18.80;99.90
21298;DHT22;10808;48.010;11.326;2022-09-09T09:52:23;18.70;99.90
21298;DHT22;10808;48.010;11.326;2022-09-09T09:54:50;18.70;99.90
21298;DHT22;10808;48.010;11.326;2022-09-09T09:57:18;18.60;99.90
21298;DHT22;10808;48.010;11.326;2022-09-09T09:59:48;18.60;99.90
21298;DHT22;10808;48.010;11.326;2022-09-09T10:02:21;18.70;99.90
21298;DHT22;10808;48.010;11.326;2022-09-09T10:05:22;18.70;99.90
21298;DHT22;10808;48.010;11.326;2022-09-09T10:16:08;18.60;99.90
21298;DHT22;10808;48.010;11.326;2022-09-09T10:18:49;18.60;99.90
21298;DHT22;10808;48.010;11.326;2022-09-09T10:30:18;18.70;99.90
21298;DHT22;10808;48.010;11.326;2022-09-09T10:33:10;18.70;99.90
21298;DHT22;10808;48.010;11.326;2022-09-09T10:36:03;18.80;99.90
21298;DHT22;10808;48.010;11.326;2022-09-09T10:41:42;18.80;99.90
21298;DHT22;10808;48.010;11.326;2022-09-09T10:55:24;19.30;99.90
21298;DHT22;10808;48.010;11.326;2022-09-09T10:57:54;19.40;99.90
21298;DHT22;10808;48.010;11.326;2022-09-09T11:00:24;19.50;99.90
21298;DHT22;10808;48.010;11.326;2022-09-09T11:02:56;19.60;99.90
21298;DHT22;10808;48.010;11.326;2022-09-09T11:08:04;19.70;99.90
21298;DHT22;10808;48.010;11.326;2022-09-09T11:13:30;19.90;99.90
21298;DHT22;10808;48.010;11.326;2022-09-09T11:16:16;20.10;99.90
21298;DHT22;10808;48.010;11.326;2022-09-09T11:18:46;20.30;99.90
21298;DHT22;10808;48.010;11.326;2022-09-09T11:21:21;20.50;99.90
21298;DHT22;10808;48.010;11.326;2022-09-09T11:24:00;20.60;99.90
21298;DHT22;10808;48.010;11.326;2022-09-09T11:26:41;20.80;99.90
21298;DHT22;10808;48.010;11.326;2022-09-09T11:32:43;20.90;99.90
21298;DHT22;10808;48.010;11.326;2022-09-09T11:37:47;20.90;99.90
21298;DHT22;10808;48.010;11.326;2022-09-09T11:40:23;21.00;99.90
21298;DHT22;10808;48.010;11.326;2022-09-09T11:43:24;21.00;99.90
21298;DHT22;10808;48.010;11.326;2022-09-09T11:45:54;21.10;99.90
21298;DHT22;10808;48.010;11.326;2022-09-09T11:48:37;21.20;99.90
21298;DHT22;10808;48.010;11.326;2022-09-09T11:51:10;21.40;99.90
21298;DHT22;10808;48.010;11.326;2022-09-09T11:56:41;21.30;99.90
21298;DHT22;10808;48.010;11.326;2022-09-09T11:59:23;21.10;99.90
21298;DHT22;10808;48.010;11.326;2022-09-09T12:01:56;20.90;99.90
21298;DHT22;10808;48.010;11.326;2022-09-09T12:04:27;20.90;99.90
21298;DHT22;10808;48.010;11.326;2022-09-09T12:09:57;21.00;99.90
21298;DHT22;10808;48.010;11.326;2022-09-09T12:12:28;21.00;99.90
21298;DHT22;10808;48.010;11.326;2022-09-09T12:17:24;20.90;99.90
21298;DHT22;10808;48.010;11.326;2022-09-09T12:34:11;21.00;99.90
21298;DHT22;10808;48.010;11.326;2022-09-09T12:36:40;21.10;99.90
21298;DHT22;10808;48.010;11.326;2022-09-09T12:39:34;21.20;99.90
21298;DHT22;10808;48.010;11.326;2022-09-09T12:42:01;21.30;99.90
21298;DHT22;10808;48.010;11.326;2022-09-09T12:44:30;21.30;99.90
21298;DHT22;10808;48.010;11.326;2022-09-09T12:46:59;21.40;99.90
21298;DHT22;10808;48.010;11.326;2022-09-09T12:49:38;21.40;99.90
21298;DHT22;10808;48.010;11.326;2022-09-09T12:52:08;21.40;99.90
21298;DHT22;10808;48.010;11.326;2022-09-09T12:54:44;21.40;99.90
21298;DHT22;10808;48.010;11.326;2022-09-09T12:57:13;21.50;99.90
21298;DHT22;10808;48.010;11.326;2022-09-09T12:59:42;21.70;99.90
21298;DHT22;10808;48.010;11.326;2022-09-09T13:04:42;21.90;99.90
21298;DHT22;10808;48.010;11.326;2022-09-09T13:07:08;22.00;99.90
21298;DHT22;10808;48.010;11.326;2022-09-09T13:09:39;22.20;99.90
21298;DHT22;10808;48.010;11.326;2022-09-09T13:12:19;22.30;99.90
21298;DHT22;10808;48.010;11.326;2022-09-09T13:14:49;22.40;99.90
21298;DHT22;10808;48.010;11.326;2022-09-09T13:17:24;22.40;99.90
21298;DHT22;10808;48.010;11.326;2022-09-09T13:19:52;22.40;99.90
21298;DHT22;10808;48.010;11.326;2022-09-09T13:22:30;22.30;99.90
21298;DHT22;10808;48.010;11.326;2022-09-09T13:27:39;22.20;99.90
21298;DHT22;10808;48.010;11.326;2022-09-09T13:30:41;22.20;99.90
21298;DHT22;10808;48.010;11.326;2022-09-09T13:38:18;22.20;99.90
21298;DHT22;10808;48.010;11.326;2022-09-09T13:41:04;22.10;99.90
21298;DHT22;10808;48.010;11.326;2022-09-09T13:43:38;22.00;99.90
21298;DHT22;10808;48.010;11.326;2022-09-09T13:48:56;21.90;99.90
21298;DHT22;10808;48.010;11.326;2022-09-09T13:51:40;21.80;99.90
21298;DHT22;10808;48.010;11.326;2022-09-09T13:54:12;21.80;99.90
21298;DHT22;10808;48.010;11.326;2022-09-09T13:56:40;21.80;99.90
21298;DHT22;10808;48.010;11.326;2022-09-09T13:59:14;21.80;99.90
21298;DHT22;10808;48.010;11.326;2022-09-09T14:01:41;21.80;99.90
21298;DHT22;10808;48.010;11.326;2022-09-09T14:04:08;21.60;99.90
21298;DHT22;10808;48.010;11.326;2022-09-09T14:06:35;21.60;99.90
21298;DHT22;10808;48.010;11.326;2022-09-09T14:09:06;21.50;99.90
21298;DHT22;10808;48.010;11.326;2022-09-09T14:11:33;21.40;99.90
21298;DHT22;10808;48.010;11.326;2022-09-09T14:13:59;21.40;99.90
21298;DHT22;10808;48.010;11.326;2022-09-09T14:16:26;21.20;99.90
21298;DHT22;10808;48.010;11.326;2022-09-09T14:18:53;21.20;99.90
21298;DHT22;10808;48.010;11.326;2022-09-09T14:21:22;21.10;99.90
21298;DHT22;10808;48.010;11.326;2022-09-09T14:23:48;21.10;99.90
21298;DHT22;10808;48.010;11.326;2022-09-09T14:26:14;21.00;99.90
21298;DHT22;10808;48.010;11.326;2022-09-09T14:28:40;21.00;99.90
21298;DHT22;10808;48.010;11.326;2022-09-09T14:31:07;20.90;99.90
21298;DHT22;10808;48.010;11.326;2022-09-09T14:33:33;20.90;99.90
21298;DHT22;10808;48.010;11.326;2022-09-09T14:36:01;20.90;99.90
21298;DHT22;10808;48.010;11.326;2022-09-09T14:38:30;20.90;99.90
21298;DHT22;10808;48.010;11.326;2022-09-09T14:40:57;20.90;99.90
21298;DHT22;10808;48.010;11.326;2022-09-09T14:43:24;20.80;99.90
21298;DHT22;10808;48.010;11.326;2022-09-09T14:45:50;20.60;99.90
21298;DHT22;10808;48.010;11.326;2022-09-09T14:48:19;20.60;99.90
21298;DHT22;10808;48.010;11.326;2022-09-09T14:50:45;20.60;99.90
21298;DHT22;10808;48.010;11.326;2022-09-09T14:53:11;20.50;99.90
21298;DHT22;10808;48.010;11.326;2022-09-09T14:55:38;20.50;99.90
21298;DHT22;10808;48.010;11.326;2022-09-09T14:58:05;20.40;99.90
21298;DHT22;10808;48.010;11.326;2022-09-09T15:00:32;20.30;99.90
21298;DHT22;10808;48.010;11.326;2022-09-09T15:02:58;20.20;99.90
21298;DHT22;10808;48.010;11.326;2022-09-09T15:05:24;20.20;99.90
21298;DHT22;10808;48.010;11.326;2022-09-09T15:07:50;20.20;99.90
21298;DHT22;10808;48.010;11.326;2022-09-09T15:10:16;20.10;99.90
21298;DHT22;10808;48.010;11.326;2022-09-09T15:12:46;20.10;99.90
21298;DHT22;10808;48.010;11.326;2022-09-09T15:15:12;20.10;99.90
21298;DHT22;10808;48.010;11.326;2022-09-09T15:17:38;20.00;99.90
21298;DHT22;10808;48.010;11.326;2022-09-09T15:20:04;20.00;99.90
21298;DHT22;10808;48.010;11.326;2022-09-09T15:22:32;20.10;99.90
21298;DHT22;10808;48.010;11.326;2022-09-09T15:24:58;20.10;99.90
21298;DHT22;10808;48.010;11.326;2022-09-09T15:27:24;20.20;99.90
21298;DHT22;10808;48.010;11.326;2022-09-09T15:29:50;20.20;99.90
21298;DHT22;10808;48.010;11.326;2022-09-09T15:32:17;20.30;99.90
21298;DHT22;10808;48.010;11.326;2022-09-09T15:34:44;20.30;99.90
21298;DHT22;10808;48.010;11.326;2022-09-09T15:37:11;20.30;99.90
21298;DHT22;10808;48.010;11.326;2022-09-09T15:39:39;20.30;99.90
21298;DHT22;10808;48.010;11.326;2022-09-09T15:42:06;20.40;99.90
21298;DHT22;10808;48.010;11.326;2022-09-09T15:44:41;20.20;99.90
21298;DHT22;10808;48.010;11.326;2022-09-09T15:47:10;20.20;99.90
21298;DHT22;10808;48.010;11.326;2022-09-09T15:49:38;20.20;99.90
21298;DHT22;10808;48.010;11.326;2022-09-09T15:52:04;20.10;99.90
21298;DHT22;10808;48.010;11.326;2022-09-09T15:54:36;20.10;99.90
21298;DHT22;10808;48.010;11.326;2022-09-09T15:57:07;20.20;99.90
21298;DHT22;10808;48.010;11.326;2022-09-09T15:59:33;20.20;99.90
21298;DHT22;10808;48.010;11.326;2022-09-09T16:02:00;20.30;99.90
21298;DHT22;10808;48.010;11.326;2022-09-09T16:04:27;20.40;99.90
21298;DHT22;10808;48.010;11.326;2022-09-09T16:07:00;20.50;99.90
21298;DHT22;10808;48.010;11.326;2022-09-09T16:09:27;20.60;99.90
21298;DHT22;10808;48.010;11.326;2022-09-09T16:12:02;20.70;99.90
21298;DHT22;10808;48.010;11.326;2022-09-09T16:14:29;20.80;99.90
21298;DHT22;10808;48.010;11.326;2022-09-09T16:17:00;20.80;99.90
21298;DHT22;10808;48.010;11.326;2022-09-09T16:19:26;20.80;99.90
21298;DHT22;10808;48.010;11.326;2022-09-09T16:21:53;20.80;99.90
21298;DHT22;10808;48.010;11.326;2022-09-09T16:24:19;20.70;99.90
21298;DHT22;10808;48.010;11.326;2022-09-09T16:26:51;20.70;99.90
21298;DHT22;10808;48.010;11.326;2022-09-09T16:29:18;20.80;99.90
21298;DHT22;10808;48.010;11.326;2022-09-09T16:31:45;20.80;99.90
21298;DHT22;10808;48.010;11.326;2022-09-09T16:34:15;20.80;99.90
21298;DHT22;10808;48.010;11.326;2022-09-09T16:36:42;20.70;99.90
21298;DHT22;10808;48.010;11.326;2022-09-09T16:39:12;20.60;99.90
21298;DHT22;10808;48.010;11.326;2022-09-09T16:41:38;20.50;99.90
21298;DHT22;10808;48.010;11.326;2022-09-09T16:44:07;20.50;99.90
21298;DHT22;10808;48.010;11.326;2022-09-09T16:46:36;20.40;99.90
21298;DHT22;10808;48.010;11.326;2022-09-09T16:49:04;20.40;99.90
21298;DHT22;10808;48.010;11.326;2022-09-09T16:51:39;20.40;99.90
21298;DHT22;10808;48.010;11.326;2022-09-09T16:54:07;20.30;99.90
21298;DHT22;10808;48.010;11.326;2022-09-09T16:56:38;20.20;99.90
21298;DHT22;10808;48.010;11.326;2022-09-09T16:59:07;20.20;99.90
21298;DHT22;10808;48.010;11.326;2022-09-09T17:01:36;20.10;99.90
21298;DHT22;10808;48.010;11.326;2022-09-09T17:04:05;20.10;99.90
21298;DHT22;10808;48.010;11.326;2022-09-09T17:06:33;20.10;99.90
21298;DHT22;10808;48.010;11.326;2022-09-09T17:09:06;20.00;99.90
21298;DHT22;10808;48.010;11.326;2022-09-09T17:11:33;19.90;99.90
21298;DHT22;10808;48.010;11.326;2022-09-09T17:13:59;19.80;99.90
21298;DHT22;10808;48.010;11.326;2022-09-09T17:16:28;19.70;99.90
21298;DHT22;10808;48.010;11.326;2022-09-09T17:18:56;19.60;99.90
21298;DHT22;10808;48.010;11.326;2022-09-09T17:21:25;19.50;99.90
21298;DHT22;10808;48.010;11.326;2022-09-09T17:23:52;19.50;99.90
21298;DHT22;10808;48.010;11.326;2022-09-09T17:26:21;19.40;99.90
21298;DHT22;10808;48.010;11.326;2022-09-09T17:28:47;19.30;99.90
21298;DHT22;10808;48.010;11.326;2022-09-09T17:31:15;19.20;99.90
21298;DHT22;10808;48.010;11.326;2022-09-09T17:33:44;19.20;99.90
21298;DHT22;10808;48.010;11.326;2022-09-09T17:36:20;19.10;99.90
21298;DHT22;10808;48.010;11.326;2022-09-09T17:38:48;19.00;99.90